createdAt,value
2018-05-24T00:00:32.627Z,1020.13
2018-05-24T00:01:32.314Z,1020.11
2018-05-24T00:02:32.287Z,1020.08
2018-05-24T00:03:32.294Z,1020.08
2018-05-24T00:04:32.294Z,1020.09
2018-05-24T00:05:32.302Z,1020.11
2018-05-24T00:06:32.279Z,1020.09
2018-05-24T00:07:32.286Z,1020.1
2018-05-24T00:08:32.335Z,1020.13
2018-05-24T00:09:32.292Z,1020.16
2018-05-24T00:10:32.292Z,1020.13
2018-05-24T00:11:32.280Z,1020.13
2018-05-24T00:12:32.321Z,1020.18
2018-05-24T00:13:32.329Z,1020.12
2018-05-24T00:14:32.305Z,1020.08
2018-05-24T00:15:32.289Z,1020.13
2018-05-24T00:16:32.296Z,1020.12
2018-05-24T00:17:32.318Z,1020.09
2018-05-24T00:18:32.305Z,1020.11
2018-05-24T00:19:32.303Z,1020.15
2018-05-24T00:20:32.308Z,1020.14
2018-05-24T00:21:32.317Z,1020.14
2018-05-24T00:22:32.687Z,1020.13
2018-05-24T00:23:32.331Z,1020.12
2018-05-24T00:24:32.344Z,1020.15
2018-05-24T00:25:32.304Z,1020.15
2018-05-24T00:26:32.305Z,1020.13
2018-05-24T00:27:32.313Z,1020.13
2018-05-24T00:28:32.307Z,1020.11
2018-05-24T00:29:32.314Z,1020.11
2018-05-24T00:30:32.478Z,1020.1
2018-05-24T00:31:32.356Z,1020.06
2018-05-24T00:32:32.552Z,1020.07
2018-05-24T00:33:32.327Z,1020.03
2018-05-24T00:34:32.312Z,1019.99
2018-05-24T00:35:32.308Z,1020.01
2018-05-24T00:36:32.325Z,1019.99
2018-05-24T00:37:32.333Z,1019.94
2018-05-24T00:38:32.313Z,1019.98
2018-05-24T00:39:32.321Z,1019.99
2018-05-24T00:40:32.325Z,1019.96
2018-05-24T00:41:32.330Z,1019.98
2018-05-24T00:42:32.319Z,1019.96
2018-05-24T00:43:32.311Z,1019.96
2018-05-24T00:44:32.320Z,1019.91
2018-05-24T00:45:32.368Z,1019.95
2018-05-24T00:46:32.378Z,1019.93
2018-05-24T00:47:32.292Z,1019.89
2018-05-24T00:48:32.314Z,1019.94
2018-05-24T00:49:32.307Z,1019.91
2018-05-24T00:50:32.320Z,1019.93
2018-05-24T00:51:32.324Z,1019.9
2018-05-24T00:52:32.356Z,1019.94
2018-05-24T00:53:32.381Z,1019.91
2018-05-24T00:54:32.576Z,1019.91
2018-05-24T00:55:32.373Z,1019.88
2018-05-24T00:56:32.349Z,1019.91
2018-05-24T00:57:32.330Z,1019.94
2018-05-24T00:58:32.376Z,1019.95
2018-05-24T00:59:32.353Z,1019.94
2018-05-24T01:00:32.316Z,1019.94
2018-05-24T01:01:32.323Z,1019.98
2018-05-24T01:02:32.352Z,1019.97
2018-05-24T01:03:32.764Z,1019.95
2018-05-24T01:04:32.313Z,1019.97
2018-05-24T01:05:32.320Z,1019.97
2018-05-24T01:06:32.326Z,1019.98
2018-05-24T01:07:32.331Z,1019.98
2018-05-24T01:08:32.343Z,1019.96
2018-05-24T01:09:32.584Z,1019.98
2018-05-24T01:10:32.332Z,1020
2018-05-24T01:11:32.350Z,1020.01
2018-05-24T01:12:32.323Z,1020.01
2018-05-24T01:13:32.907Z,1020
2018-05-24T01:14:32.334Z,1020.01
2018-05-24T01:15:32.343Z,1020.08
2018-05-24T01:16:32.342Z,1020.09
2018-05-24T01:17:32.363Z,1020.07
2018-05-24T01:18:32.345Z,1020.04
2018-05-24T01:19:32.332Z,1020.05
2018-05-24T01:20:32.338Z,1020.04
2018-05-24T01:21:32.328Z,1020.05
2018-05-24T01:22:32.333Z,1020.04
2018-05-24T01:23:32.908Z,1020
2018-05-24T01:24:32.377Z,1020.04
2018-05-24T01:25:32.354Z,1020.04
2018-05-24T01:26:32.371Z,1020.02
2018-05-24T01:27:32.368Z,1020.04
2018-05-24T01:28:32.338Z,1020
2018-05-24T01:29:32.417Z,1020.04
2018-05-24T01:30:32.469Z,1020
2018-05-24T01:31:32.352Z,1020.05
2018-05-24T01:32:32.356Z,1020.04
2018-05-24T01:33:32.360Z,1020.02
2018-05-24T01:34:32.348Z,1020.03
2018-05-24T01:35:32.356Z,1020.02
2018-05-24T01:36:32.355Z,1020.03
2018-05-24T01:37:32.448Z,1020.03
2018-05-24T01:38:32.398Z,1019.99
2018-05-24T01:39:32.359Z,1020
2018-05-24T01:40:32.359Z,1020
2018-05-24T01:41:32.468Z,1019.98
2018-05-24T01:42:32.349Z,1020
2018-05-24T01:43:32.362Z,1020.01
2018-05-24T01:44:32.361Z,1020.02
2018-05-24T01:45:32.346Z,1020.04
2018-05-24T01:46:32.373Z,1019.98
2018-05-24T01:47:32.460Z,1020.01
2018-05-24T01:48:32.365Z,1020
2018-05-24T01:49:32.393Z,1019.98
2018-05-24T01:50:32.373Z,1019.99
2018-05-24T01:51:32.358Z,1019.95
2018-05-24T01:52:32.363Z,1019.99
2018-05-24T01:53:32.351Z,1019.98
2018-05-24T01:54:32.399Z,1019.98
2018-05-24T01:55:32.360Z,1019.98
2018-05-24T01:56:32.367Z,1019.94
2018-05-24T01:57:32.388Z,1019.96
2018-05-24T01:58:32.428Z,1019.92
2018-05-24T01:59:32.383Z,1019.88
2018-05-24T02:00:32.438Z,1019.89
2018-05-24T02:01:32.401Z,1019.88
2018-05-24T02:02:32.411Z,1019.87
2018-05-24T02:03:32.369Z,1019.86
2018-05-24T02:04:32.367Z,1019.85
2018-05-24T02:05:32.432Z,1019.86
2018-05-24T02:06:32.371Z,1019.84
2018-05-24T02:07:32.532Z,1019.84
2018-05-24T02:08:32.362Z,1019.86
2018-05-24T02:09:32.382Z,1019.84
2018-05-24T02:10:32.372Z,1019.86
2018-05-24T02:11:32.365Z,1019.9
2018-05-24T02:12:32.532Z,1019.89
2018-05-24T02:13:32.369Z,1019.85
2018-05-24T02:14:32.371Z,1019.9
2018-05-24T02:15:32.359Z,1019.93
2018-05-24T02:16:32.384Z,1019.88
2018-05-24T02:17:32.366Z,1019.86
2018-05-24T02:18:32.351Z,1019.87
2018-05-24T02:19:32.362Z,1019.85
2018-05-24T02:20:32.397Z,1019.88
2018-05-24T02:21:32.362Z,1019.85
2018-05-24T02:22:32.388Z,1019.87
2018-05-24T02:23:32.379Z,1019.87
2018-05-24T02:24:32.397Z,1019.88
2018-05-24T02:25:32.387Z,1019.87
2018-05-24T02:26:32.382Z,1019.86
2018-05-24T02:27:32.382Z,1019.86
2018-05-24T02:28:32.378Z,1019.87
2018-05-24T02:29:32.364Z,1019.85
2018-05-24T02:30:32.404Z,1019.85
2018-05-24T02:31:32.387Z,1019.88
2018-05-24T02:32:32.396Z,1019.87
2018-05-24T02:33:32.372Z,1019.9
2018-05-24T02:34:32.372Z,1019.95
2018-05-24T02:35:32.377Z,1019.98
2018-05-24T02:36:32.374Z,1019.98
2018-05-24T02:37:32.399Z,1020.05
2018-05-24T02:38:32.384Z,1020.08
2018-05-24T02:39:32.417Z,1020.08
2018-05-24T02:40:32.401Z,1020.12
2018-05-24T02:41:32.395Z,1020.11
2018-05-24T02:42:32.405Z,1020.13
2018-05-24T02:43:32.407Z,1020.12
2018-05-24T02:44:32.413Z,1020.11
2018-05-24T02:45:32.425Z,1020.15
2018-05-24T02:46:32.434Z,1020.16
2018-05-24T02:47:32.431Z,1020.18
2018-05-24T02:48:32.429Z,1020.22
2018-05-24T02:49:32.449Z,1020.21
2018-05-24T02:50:32.445Z,1020.21
2018-05-24T02:51:32.402Z,1020.2
2018-05-24T02:52:32.430Z,1020.21
2018-05-24T02:53:32.394Z,1020.17
2018-05-24T02:54:32.417Z,1020.18
2018-05-24T02:55:32.596Z,1020.15
2018-05-24T02:56:32.455Z,1020.17
2018-05-24T02:57:32.433Z,1020.16
2018-05-24T02:58:32.406Z,1020.16
2018-05-24T02:59:32.435Z,1020.2
2018-05-24T03:00:32.588Z,1020.16
2018-05-24T03:01:32.415Z,1020.17
2018-05-24T03:02:32.382Z,1020.15
2018-05-24T03:03:32.523Z,1020.13
2018-05-24T03:04:32.397Z,1020.2
2018-05-24T03:05:32.398Z,1020.16
2018-05-24T03:06:32.396Z,1020.15
2018-05-24T03:07:32.429Z,1020.16
2018-05-24T03:08:32.418Z,1020.17
2018-05-24T03:09:32.394Z,1020.12
2018-05-24T03:10:32.831Z,1020.18
2018-05-24T03:11:32.467Z,1020.2
2018-05-24T03:12:32.427Z,1020.16
2018-05-24T03:13:32.425Z,1020.13
2018-05-24T03:14:32.430Z,1020.14
2018-05-24T03:15:32.475Z,1020.11
2018-05-24T03:16:32.397Z,1020.13
2018-05-24T03:17:32.419Z,1020.12
2018-05-24T03:18:32.418Z,1020.1
2018-05-24T03:19:32.415Z,1020.09
2018-05-24T03:20:32.422Z,1020.06
2018-05-24T03:21:32.439Z,1020.03
2018-05-24T03:22:32.432Z,1019.99
2018-05-24T03:23:32.386Z,1020
2018-05-24T03:24:32.399Z,1019.99
2018-05-24T03:25:32.420Z,1020.01
2018-05-24T03:26:32.412Z,1020.02
2018-05-24T03:27:32.429Z,1020.05
2018-05-24T03:28:32.398Z,1020.03
2018-05-24T03:29:32.407Z,1020.04
2018-05-24T03:30:32.414Z,1020.01
2018-05-24T03:31:32.442Z,1020.02
2018-05-24T03:32:32.423Z,1020.03
2018-05-24T03:33:32.448Z,1020.02
2018-05-24T03:34:32.448Z,1020.03
2018-05-24T03:35:32.428Z,1020
2018-05-24T03:36:32.420Z,1020.02
2018-05-24T03:37:32.459Z,1020.07
2018-05-24T03:38:32.422Z,1020.06
2018-05-24T03:39:32.403Z,1020.09
2018-05-24T03:40:32.408Z,1020.08
2018-05-24T03:41:32.424Z,1020.06
2018-05-24T03:42:32.411Z,1020.04
2018-05-24T03:43:32.439Z,1020.07
2018-05-24T03:44:32.455Z,1020.04
2018-05-24T03:45:32.449Z,1020
2018-05-24T03:46:32.447Z,1020.01
2018-05-24T03:47:32.417Z,1019.95
2018-05-24T03:48:32.520Z,1019.94
2018-05-24T03:49:32.449Z,1019.94
2018-05-24T03:50:32.442Z,1019.99
2018-05-24T03:51:32.440Z,1019.98
2018-05-24T03:52:32.418Z,1019.97
2018-05-24T03:53:33.035Z,1019.94
2018-05-24T03:54:32.428Z,1019.95
2018-05-24T03:55:32.414Z,1019.95
2018-05-24T03:56:32.969Z,1019.94
2018-05-24T03:57:32.502Z,1019.91
2018-05-24T03:58:32.518Z,1019.94
2018-05-24T03:59:32.420Z,1019.92
2018-05-24T04:00:32.434Z,1019.9
2018-05-24T04:01:32.431Z,1019.9
2018-05-24T04:02:32.462Z,1019.89
2018-05-24T04:03:32.463Z,1019.89
2018-05-24T04:04:32.464Z,1019.87
2018-05-24T04:05:32.452Z,1019.91
2018-05-24T04:06:32.458Z,1019.87
2018-05-24T04:07:32.446Z,1019.91
2018-05-24T04:08:32.907Z,1019.88
2018-05-24T04:09:32.442Z,1019.89
2018-05-24T04:10:32.485Z,1019.94
2018-05-24T04:11:32.488Z,1019.89
2018-05-24T04:12:32.443Z,1019.92
2018-05-24T04:13:32.455Z,1019.97
2018-05-24T04:14:32.442Z,1019.97
2018-05-24T04:15:32.494Z,1019.95
2018-05-24T04:16:32.443Z,1019.97
2018-05-24T04:17:32.452Z,1019.94
2018-05-24T04:18:32.466Z,1019.97
2018-05-24T04:19:32.966Z,1019.91
2018-05-24T04:20:32.459Z,1019.91
2018-05-24T04:21:32.467Z,1019.94
2018-05-24T04:22:32.479Z,1019.93
2018-05-24T04:23:32.457Z,1019.95
2018-05-24T04:24:32.459Z,1019.98
2018-05-24T04:25:32.481Z,1019.98
2018-05-24T04:26:32.433Z,1019.99
2018-05-24T04:27:32.498Z,1019.99
2018-05-24T04:28:32.452Z,1020
2018-05-24T04:29:32.478Z,1020
2018-05-24T04:30:32.459Z,1020.01
2018-05-24T04:31:32.436Z,1020
2018-05-24T04:32:32.430Z,1020.06
2018-05-24T04:33:32.471Z,1020.08
2018-05-24T04:34:32.444Z,1020.1
2018-05-24T04:35:32.500Z,1020.03
2018-05-24T04:36:32.446Z,1020.08
2018-05-24T04:37:32.446Z,1020.09
2018-05-24T04:38:32.455Z,1020.1
2018-05-24T04:39:32.480Z,1020.13
2018-05-24T04:40:32.453Z,1020.1
2018-05-24T04:41:32.445Z,1020.08
2018-05-24T04:42:32.451Z,1020.12
2018-05-24T04:43:32.440Z,1020.07
2018-05-24T04:44:32.431Z,1020.08
2018-05-24T04:45:32.594Z,1020.1
2018-05-24T04:46:32.481Z,1020.09
2018-05-24T04:47:32.467Z,1020.1
2018-05-24T04:48:32.482Z,1020.08
2018-05-24T04:49:32.451Z,1020.13
2018-05-24T04:50:32.463Z,1020.13
2018-05-24T04:51:32.473Z,1020.16
2018-05-24T04:52:32.453Z,1020.16
2018-05-24T04:53:32.461Z,1020.19
2018-05-24T04:54:32.830Z,1020.23
2018-05-24T04:55:32.612Z,1020.22
2018-05-24T04:56:32.529Z,1020.22
2018-05-24T04:57:32.529Z,1020.26
2018-05-24T04:58:32.476Z,1020.24
2018-05-24T04:59:32.836Z,1020.23
2018-05-24T05:00:32.507Z,1020.23
2018-05-24T05:01:32.524Z,1020.24
2018-05-24T05:02:32.496Z,1020.22
2018-05-24T05:03:32.515Z,1020.21
2018-05-24T05:04:32.540Z,1020.24
2018-05-24T05:05:32.510Z,1020.26
2018-05-24T05:06:32.533Z,1020.28
2018-05-24T05:07:32.476Z,1020.28
2018-05-24T05:08:32.493Z,1020.24
2018-05-24T05:09:32.469Z,1020.27
2018-05-24T05:10:32.778Z,1020.3
2018-05-24T05:11:32.500Z,1020.3
2018-05-24T05:12:32.528Z,1020.3
2018-05-24T05:13:33.006Z,1020.3
2018-05-24T05:14:32.591Z,1020.34
2018-05-24T05:15:32.493Z,1020.35
2018-05-24T05:16:32.829Z,1020.34
2018-05-24T05:17:32.563Z,1020.32
2018-05-24T05:18:32.497Z,1020.32
2018-05-24T05:19:32.589Z,1020.3
2018-05-24T05:20:32.488Z,1020.35
2018-05-24T05:21:32.497Z,1020.36
2018-05-24T05:22:32.508Z,1020.38
2018-05-24T05:23:32.666Z,1020.36
2018-05-24T05:24:32.564Z,1020.38
2018-05-24T05:25:32.493Z,1020.38
2018-05-24T05:26:32.495Z,1020.42
2018-05-24T05:27:33.136Z,1020.41
2018-05-24T05:28:32.493Z,1020.38
2018-05-24T05:29:32.528Z,1020.38
2018-05-24T05:30:32.622Z,1020.31
2018-05-24T05:31:32.617Z,1020.33
2018-05-24T05:32:32.551Z,1020.33
2018-05-24T05:33:32.490Z,1020.31
2018-05-24T05:34:32.579Z,1020.38
2018-05-24T05:35:32.493Z,1020.37
2018-05-24T05:36:32.573Z,1020.36
2018-05-24T05:37:32.682Z,1020.41
2018-05-24T05:38:32.515Z,1020.42
2018-05-24T05:39:32.505Z,1020.47
2018-05-24T05:40:32.975Z,1020.48
2018-05-24T05:41:32.537Z,1020.47
2018-05-24T05:42:32.516Z,1020.49
2018-05-24T05:43:32.493Z,1020.52
2018-05-24T05:44:32.508Z,1020.54
2018-05-24T05:45:32.484Z,1020.58
2018-05-24T05:46:32.470Z,1020.58
2018-05-24T05:47:32.485Z,1020.58
2018-05-24T05:48:32.506Z,1020.57
2018-05-24T05:49:32.481Z,1020.53
2018-05-24T05:50:32.480Z,1020.55
2018-05-24T05:51:32.487Z,1020.59
2018-05-24T05:52:32.543Z,1020.54
2018-05-24T05:53:32.505Z,1020.57
2018-05-24T05:54:33.232Z,1020.52
2018-05-24T05:55:33.246Z,1020.54
2018-05-24T05:56:33.257Z,1020.59
2018-05-24T05:57:33.255Z,1020.59
2018-05-24T05:58:33.254Z,1020.59
2018-05-24T05:59:33.207Z,1020.58
2018-05-24T06:00:33.202Z,1020.59
2018-05-24T06:01:33.368Z,1020.58
2018-05-24T06:02:33.236Z,1020.56
2018-05-24T06:03:33.191Z,1020.49
2018-05-24T06:04:33.243Z,1020.54
2018-05-24T06:05:33.249Z,1020.5
2018-05-24T06:06:33.242Z,1020.5
2018-05-24T06:07:33.260Z,1020.48
2018-05-24T06:08:33.269Z,1020.52
2018-05-24T06:09:33.267Z,1020.55
2018-05-24T06:10:33.261Z,1020.54
2018-05-24T06:11:33.236Z,1020.53
2018-05-24T06:12:32.883Z,1020.54
2018-05-24T06:13:33.277Z,1020.52
2018-05-24T06:14:33.289Z,1020.53
2018-05-24T06:15:33.396Z,1020.5
2018-05-24T06:16:33.372Z,1020.49
2018-05-24T06:17:33.229Z,1020.51
2018-05-24T06:18:33.455Z,1020.5
2018-05-24T06:19:33.238Z,1020.46
2018-05-24T06:20:33.289Z,1020.51
2018-05-24T06:21:33.453Z,1020.53
2018-05-24T06:22:33.210Z,1020.57
2018-05-24T06:23:33.269Z,1020.54
2018-05-24T06:24:33.392Z,1020.5
2018-05-24T06:25:33.290Z,1020.54
2018-05-24T06:26:33.367Z,1020.57
2018-05-24T06:27:33.275Z,1020.58
2018-05-24T06:28:33.469Z,1020.6
2018-05-24T06:29:33.267Z,1020.59
2018-05-24T06:30:33.262Z,1020.61
2018-05-24T06:31:33.223Z,1020.6
2018-05-24T06:32:33.291Z,1020.6
2018-05-24T06:33:33.422Z,1020.59
2018-05-24T06:34:33.321Z,1020.54
2018-05-24T06:35:33.248Z,1020.56
2018-05-24T06:36:33.356Z,1020.6
2018-05-24T06:37:33.376Z,1020.61
2018-05-24T06:38:33.344Z,1020.64
2018-05-24T06:39:33.387Z,1020.64
2018-05-24T06:40:33.510Z,1020.69
2018-05-24T06:41:33.298Z,1020.69
2018-05-24T06:42:33.285Z,1020.68
2018-05-24T06:43:33.355Z,1020.68
2018-05-24T06:44:33.169Z,1020.76
2018-05-24T06:45:33.262Z,1020.7
2018-05-24T06:46:33.427Z,1020.73
2018-05-24T06:47:33.430Z,1020.75
2018-05-24T06:48:33.320Z,1020.69
2018-05-24T06:49:33.202Z,1020.68
2018-05-24T06:50:33.259Z,1020.71
2018-05-24T06:51:33.270Z,1020.7
2018-05-24T06:52:33.278Z,1020.73
2018-05-24T06:53:33.549Z,1020.72
2018-05-24T06:54:32.547Z,1020.76
2018-05-24T06:55:32.634Z,1020.81
2018-05-24T06:56:32.523Z,1020.76
2018-05-24T06:57:32.526Z,1020.77
2018-05-24T06:58:32.595Z,1020.8
2018-05-24T06:59:32.525Z,1020.76
2018-05-24T07:00:32.533Z,1020.78
2018-05-24T07:01:32.551Z,1020.75
2018-05-24T07:02:32.524Z,1020.78
2018-05-24T07:03:32.566Z,1020.78
2018-05-24T07:04:32.527Z,1020.78
2018-05-24T07:05:32.541Z,1020.77
2018-05-24T07:06:32.517Z,1020.85
2018-05-24T07:07:32.526Z,1020.84
2018-05-24T07:08:32.541Z,1020.84
2018-05-24T07:09:32.520Z,1020.78
2018-05-24T07:10:32.556Z,1020.8
2018-05-24T07:11:32.531Z,1020.8
2018-05-24T07:12:32.524Z,1020.81
2018-05-24T07:13:32.538Z,1020.8
2018-05-24T07:14:32.531Z,1020.86
2018-05-24T07:15:32.627Z,1020.82
2018-05-24T07:16:32.539Z,1020.77
2018-05-24T07:17:32.527Z,1020.82
2018-05-24T07:18:32.628Z,1020.82
2018-05-24T07:19:32.537Z,1020.82
2018-05-24T07:20:32.540Z,1020.81
2018-05-24T07:21:32.537Z,1020.78
2018-05-24T07:22:32.530Z,1020.81
2018-05-24T07:23:32.525Z,1020.77
2018-05-24T07:24:32.637Z,1020.75
2018-05-24T07:25:32.535Z,1020.73
2018-05-24T07:26:32.542Z,1020.72
2018-05-24T07:27:32.533Z,1020.76
2018-05-24T07:28:32.539Z,1020.72
2018-05-24T07:29:32.527Z,1020.64
2018-05-24T07:30:32.542Z,1020.68
2018-05-24T07:31:32.545Z,1020.69
2018-05-24T07:32:32.578Z,1020.71
2018-05-24T07:33:32.536Z,1020.69
2018-05-24T07:34:32.530Z,1020.72
2018-05-24T07:35:32.532Z,1020.69
2018-05-24T07:36:32.544Z,1020.71
2018-05-24T07:37:32.552Z,1020.68
2018-05-24T07:38:32.528Z,1020.73
2018-05-24T07:39:32.561Z,1020.7
2018-05-24T07:40:32.537Z,1020.69
2018-05-24T07:41:32.548Z,1020.67
2018-05-24T07:42:32.553Z,1020.68
2018-05-24T07:43:32.858Z,1020.72
2018-05-24T07:44:32.558Z,1020.69
2018-05-24T07:45:32.568Z,1020.65
2018-05-24T07:46:32.553Z,1020.68
2018-05-24T07:47:32.598Z,1020.69
2018-05-24T07:48:32.598Z,1020.66
2018-05-24T07:49:32.684Z,1020.67
2018-05-24T07:50:32.591Z,1020.66
2018-05-24T07:51:32.556Z,1020.71
2018-05-24T07:52:32.693Z,1020.7
2018-05-24T07:53:32.717Z,1020.66
2018-05-24T07:54:33.329Z,1020.65
2018-05-24T07:55:33.442Z,1020.64
2018-05-24T07:56:33.300Z,1020.63
2018-05-24T07:57:33.274Z,1020.61
2018-05-24T07:58:33.315Z,1020.61
2018-05-24T07:59:33.321Z,1020.63
2018-05-24T08:00:33.269Z,1020.64
2018-05-24T08:01:33.434Z,1020.65
2018-05-24T08:02:33.325Z,1020.62
2018-05-24T08:03:33.609Z,1020.6
2018-05-24T08:04:33.389Z,1020.61
2018-05-24T08:05:33.290Z,1020.63
2018-05-24T08:06:33.217Z,1020.63
2018-05-24T08:07:33.220Z,1020.63
2018-05-24T08:08:33.440Z,1020.61
2018-05-24T08:09:33.281Z,1020.63
2018-05-24T08:10:33.304Z,1020.64
2018-05-24T08:11:33.343Z,1020.61
2018-05-24T08:12:33.365Z,1020.62
2018-05-24T08:13:33.333Z,1020.63
2018-05-24T08:14:33.338Z,1020.62
2018-05-24T08:15:33.297Z,1020.59
2018-05-24T08:16:33.290Z,1020.63
2018-05-24T08:17:33.295Z,1020.59
2018-05-24T08:18:33.322Z,1020.59
2018-05-24T08:19:33.461Z,1020.56
2018-05-24T08:20:33.344Z,1020.57
2018-05-24T08:21:33.332Z,1020.57
2018-05-24T08:22:33.407Z,1020.58
2018-05-24T08:23:33.317Z,1020.57
2018-05-24T08:24:33.328Z,1020.58
2018-05-24T08:25:33.389Z,1020.58
2018-05-24T08:26:33.530Z,1020.54
2018-05-24T08:27:33.343Z,1020.57
2018-05-24T08:28:33.354Z,1020.56
2018-05-24T08:29:33.399Z,1020.56
2018-05-24T08:30:33.311Z,1020.55
2018-05-24T08:31:33.346Z,1020.57
2018-05-24T08:32:33.699Z,1020.59
2018-05-24T08:33:33.331Z,1020.59
2018-05-24T08:34:33.316Z,1020.57
2018-05-24T08:35:33.321Z,1020.55
2018-05-24T08:36:33.329Z,1020.58
2018-05-24T08:37:33.299Z,1020.61
2018-05-24T08:38:33.330Z,1020.59
2018-05-24T08:39:33.278Z,1020.6
2018-05-24T08:40:33.497Z,1020.61
2018-05-24T08:41:33.271Z,1020.57
2018-05-24T08:42:33.311Z,1020.58
2018-05-24T08:43:33.381Z,1020.61
2018-05-24T08:44:33.328Z,1020.65
2018-05-24T08:45:33.398Z,1020.61
2018-05-24T08:46:33.403Z,1020.59
2018-05-24T08:47:33.401Z,1020.59
2018-05-24T08:48:33.343Z,1020.58
2018-05-24T08:49:33.316Z,1020.57
2018-05-24T08:50:33.321Z,1020.56
2018-05-24T08:51:33.370Z,1020.53
2018-05-24T08:52:33.291Z,1020.54
2018-05-24T08:53:33.346Z,1020.51
2018-05-24T08:54:32.580Z,1020.45
2018-05-24T08:55:32.620Z,1020.43
2018-05-24T08:56:32.615Z,1020.46
2018-05-24T08:57:32.567Z,1020.43
2018-05-24T08:58:32.666Z,1020.41
2018-05-24T08:59:32.596Z,1020.42
2018-05-24T09:00:32.585Z,1020.44
2018-05-24T09:01:32.859Z,1020.43
2018-05-24T09:02:32.632Z,1020.4
2018-05-24T09:03:32.599Z,1020.4
2018-05-24T09:04:32.639Z,1020.39
2018-05-24T09:05:32.670Z,1020.41
2018-05-24T09:06:32.606Z,1020.35
2018-05-24T09:07:32.616Z,1020.42
2018-05-24T09:08:32.616Z,1020.38
2018-05-24T09:09:32.633Z,1020.36
2018-05-24T09:10:32.628Z,1020.37
2018-05-24T09:11:32.953Z,1020.38
2018-05-24T09:12:32.612Z,1020.34
2018-05-24T09:13:32.578Z,1020.35
2018-05-24T09:14:32.666Z,1020.35
2018-05-24T09:15:32.972Z,1020.37
2018-05-24T09:16:32.600Z,1020.36
2018-05-24T09:17:32.603Z,1020.36
2018-05-24T09:18:32.600Z,1020.33
2018-05-24T09:19:32.692Z,1020.33
2018-05-24T09:20:32.795Z,1020.32
2018-05-24T09:21:32.775Z,1020.37
2018-05-24T09:22:32.610Z,1020.35
2018-05-24T09:23:32.622Z,1020.35
2018-05-24T09:24:32.699Z,1020.33
2018-05-24T09:25:32.607Z,1020.37
2018-05-24T09:26:32.586Z,1020.38
2018-05-24T09:27:32.591Z,1020.39
2018-05-24T09:28:32.627Z,1020.41
2018-05-24T09:29:32.680Z,1020.41
2018-05-24T09:30:32.632Z,1020.42
2018-05-24T09:31:32.623Z,1020.45
2018-05-24T09:32:32.601Z,1020.4
2018-05-24T09:33:32.608Z,1020.39
2018-05-24T09:34:32.641Z,1020.38
2018-05-24T09:35:32.619Z,1020.35
2018-05-24T09:36:32.623Z,1020.37
2018-05-24T09:37:32.622Z,1020.39
2018-05-24T09:38:32.691Z,1020.38
2018-05-24T09:39:32.614Z,1020.42
2018-05-24T09:40:32.622Z,1020.39
2018-05-24T09:41:32.961Z,1020.37
2018-05-24T09:42:32.742Z,1020.43
2018-05-24T09:43:32.648Z,1020.42
2018-05-24T09:44:32.609Z,1020.41
2018-05-24T09:45:32.617Z,1020.4
2018-05-24T09:46:32.627Z,1020.38
2018-05-24T09:47:32.617Z,1020.4
2018-05-24T09:48:32.635Z,1020.38
2018-05-24T09:49:32.617Z,1020.39
2018-05-24T09:50:32.626Z,1020.37
2018-05-24T09:51:32.651Z,1020.34
2018-05-24T09:52:32.619Z,1020.41
2018-05-24T09:53:32.629Z,1020.34
2018-05-24T09:54:32.628Z,1020.32
2018-05-24T09:55:32.838Z,1020.37
2018-05-24T09:56:32.650Z,1020.39
2018-05-24T09:57:32.632Z,1020.31
2018-05-24T09:58:32.657Z,1020.32
2018-05-24T09:59:32.605Z,1020.33
2018-05-24T10:00:32.612Z,1020.34
2018-05-24T10:01:32.622Z,1020.35
2018-05-24T10:02:32.617Z,1020.33
2018-05-24T10:03:32.615Z,1020.34
2018-05-24T10:04:32.731Z,1020.36
2018-05-24T10:05:32.646Z,1020.32
2018-05-24T10:06:32.621Z,1020.34
2018-05-24T10:07:32.632Z,1020.36
2018-05-24T10:08:33.438Z,1020.34
2018-05-24T10:09:32.622Z,1020.33
2018-05-24T10:10:32.873Z,1020.29
2018-05-24T10:11:32.862Z,1020.31
2018-05-24T10:12:32.678Z,1020.26
2018-05-24T10:13:32.711Z,1020.26
2018-05-24T10:14:32.659Z,1020.25
2018-05-24T10:15:32.648Z,1020.25
2018-05-24T10:16:32.834Z,1020.23
2018-05-24T10:17:32.634Z,1020.25
2018-05-24T10:18:32.674Z,1020.25
2018-05-24T10:19:32.621Z,1020.19
2018-05-24T10:20:32.619Z,1020.23
2018-05-24T10:21:32.634Z,1020.24
2018-05-24T10:22:32.645Z,1020.23
2018-05-24T10:23:32.789Z,1020.23
2018-05-24T10:24:32.700Z,1020.23
2018-05-24T10:25:32.655Z,1020.21
2018-05-24T10:26:32.647Z,1020.18
2018-05-24T10:27:32.640Z,1020.18
2018-05-24T10:28:33.536Z,1020.18
2018-05-24T10:29:32.682Z,1020.17
2018-05-24T10:30:32.736Z,1020.15
2018-05-24T10:31:32.663Z,1020.21
2018-05-24T10:32:32.664Z,1020.15
2018-05-24T10:33:32.659Z,1020.15
2018-05-24T10:34:32.723Z,1020.12
2018-05-24T10:35:32.696Z,1020.13
2018-05-24T10:36:32.660Z,1020.12
2018-05-24T10:37:34.905Z,1020.11
2018-05-24T10:38:32.671Z,1020.08
2018-05-24T10:39:32.721Z,1020.03
2018-05-24T10:40:34.858Z,1020.01
2018-05-24T10:41:32.660Z,1019.96
2018-05-24T10:42:32.641Z,1019.99
2018-05-24T10:43:35.241Z,1019.95
2018-05-24T10:44:32.688Z,1019.96
2018-05-24T10:45:32.653Z,1019.95
2018-05-24T10:46:32.670Z,1019.92
2018-05-24T10:47:32.677Z,1019.92
2018-05-24T10:48:32.672Z,1019.9
2018-05-24T10:49:32.654Z,1019.91
2018-05-24T10:50:32.697Z,1019.87
2018-05-24T10:51:32.729Z,1019.87
2018-05-24T10:52:32.664Z,1019.9
2018-05-24T10:53:32.778Z,1019.88
2018-05-24T10:54:32.705Z,1019.93
2018-05-24T10:55:32.657Z,1019.84
2018-05-24T10:56:32.732Z,1019.86
2018-05-24T10:57:32.754Z,1019.81
2018-05-24T10:58:32.860Z,1019.79
2018-05-24T10:59:33.073Z,1019.76
2018-05-24T11:00:32.660Z,1019.8
2018-05-24T11:01:32.663Z,1019.76
2018-05-24T11:02:32.669Z,1019.74
2018-05-24T11:03:32.788Z,1019.79
2018-05-24T11:04:32.655Z,1019.78
2018-05-24T11:05:32.677Z,1019.75
2018-05-24T11:06:32.804Z,1019.75
2018-05-24T11:07:32.747Z,1019.75
2018-05-24T11:08:32.655Z,1019.72
2018-05-24T11:09:32.821Z,1019.72
2018-05-24T11:10:32.832Z,1019.68
2018-05-24T11:11:32.738Z,1019.64
2018-05-24T11:12:32.744Z,1019.65
2018-05-24T11:13:32.675Z,1019.63
2018-05-24T11:14:32.664Z,1019.58
2018-05-24T11:15:32.866Z,1019.59
2018-05-24T11:16:32.667Z,1019.6
2018-05-24T11:17:32.680Z,1019.54
2018-05-24T11:18:32.780Z,1019.55
2018-05-24T11:19:32.788Z,1019.47
2018-05-24T11:20:32.900Z,1019.43
2018-05-24T11:21:32.806Z,1019.48
2018-05-24T11:22:32.814Z,1019.46
2018-05-24T11:23:32.815Z,1019.43
2018-05-24T11:24:32.681Z,1019.44
2018-05-24T11:25:32.746Z,1019.41
2018-05-24T11:26:32.697Z,1019.44
2018-05-24T11:27:32.715Z,1019.39
2018-05-24T11:28:32.698Z,1019.47
2018-05-24T11:29:32.865Z,1019.38
2018-05-24T11:30:32.705Z,1019.39
2018-05-24T11:31:32.778Z,1019.44
2018-05-24T11:32:32.747Z,1019.36
2018-05-24T11:33:32.791Z,1019.31
2018-05-24T11:34:32.894Z,1019.3
2018-05-24T11:35:32.811Z,1019.3
2018-05-24T11:36:32.810Z,1019.27
2018-05-24T11:37:32.821Z,1019.32
2018-05-24T11:38:32.928Z,1019.32
2018-05-24T11:39:32.732Z,1019.34
2018-05-24T11:40:32.736Z,1019.32
2018-05-24T11:41:32.840Z,1019.31
2018-05-24T11:42:32.863Z,1019.32
2018-05-24T11:43:32.860Z,1019.34
2018-05-24T11:44:32.868Z,1019.34
2018-05-24T11:45:32.867Z,1019.29
2018-05-24T11:46:32.736Z,1019.31
2018-05-24T11:47:32.768Z,1019.34
2018-05-24T11:48:32.705Z,1019.3
2018-05-24T11:49:32.691Z,1019.28
2018-05-24T11:50:32.707Z,1019.28
2018-05-24T11:51:32.786Z,1019.29
2018-05-24T11:52:32.701Z,1019.27
2018-05-24T11:53:32.825Z,1019.28
2018-05-24T11:54:32.714Z,1019.32
2018-05-24T11:55:32.835Z,1019.33
2018-05-24T11:56:32.843Z,1019.35
2018-05-24T11:57:32.713Z,1019.32
2018-05-24T11:58:32.707Z,1019.3
2018-05-24T11:59:32.871Z,1019.29
2018-05-24T12:00:32.706Z,1019.33
2018-05-24T12:01:32.704Z,1019.33
2018-05-24T12:02:32.692Z,1019.31
2018-05-24T12:03:32.753Z,1019.23
2018-05-24T12:04:32.727Z,1019.21
2018-05-24T12:05:32.813Z,1019.18
2018-05-24T12:06:32.702Z,1019.17
2018-05-24T12:07:32.703Z,1019.16
2018-05-24T12:08:32.701Z,1019.16